sensor_id;sensor_type;location;lat;lon;timestamp;pressure;altitude;pressure_sealevel;temperature;humidity
3132;BME280;62090;52.330;9.104;2023-06-19T00:01:09;100470.03;;;25.41;49.26
3132;BME280;62090;52.330;9.104;2023-06-19T00:03:39;100468.66;;;25.32;49.48
3132;BME280;62090;52.330;9.104;2023-06-19T00:06:12;100471.09;;;25.37;49.55
3132;BME280;62090;52.330;9.104;2023-06-19T00:08:41;100454.41;;;25.19;49.90
3132;BME280;62090;52.330;9.104;2023-06-19T00:11:11;100467.41;;;25.20;50.28
3132;BME280;62090;52.330;9.104;2023-06-19T00:13:41;100424.97;;;24.95;50.39
3132;BME280;62090;52.330;9.104;2023-06-19T00:16:11;100435.91;;;25.03;50.00
3132;BME280;62090;52.330;9.104;2023-06-19T00:18:41;100459.56;;;25.20;50.58
3132;BME280;62090;52.330;9.104;2023-06-19T00:21:14;100452.50;;;25.22;49.89
3132;BME280;62090;52.330;9.104;2023-06-19T00:23:43;100449.34;;;25.16;50.49
3132;BME280;62090;52.330;9.104;2023-06-19T00:26:13;100448.34;;;25.18;50.10
3132;BME280;62090;52.330;9.104;2023-06-19T00:28:43;100435.44;;;25.15;49.74
3132;BME280;62090;52.330;9.104;2023-06-19T00:31:14;100444.81;;;25.19;49.98
3132;BME280;62090;52.330;9.104;2023-06-19T00:33:44;100440.41;;;25.21;49.68
3132;BME280;62090;52.330;9.104;2023-06-19T00:36:17;100444.53;;;25.27;49.69
3132;BME280;62090;52.330;9.104;2023-06-19T00:38:50;100409.47;;;25.12;49.37
3132;BME280;62090;52.330;9.104;2023-06-19T00:41:20;100417.44;;;25.09;49.52
3132;BME280;62090;52.330;9.104;2023-06-19T00:43:50;100446.09;;;25.31;49.74
3132;BME280;62090;52.330;9.104;2023-06-19T00:46:21;100441.97;;;25.26;49.84
3132;BME280;62090;52.330;9.104;2023-06-19T00:48:51;100407.91;;;25.08;50.51
3132;BME280;62090;52.330;9.104;2023-06-19T00:51:23;100443.59;;;25.28;51.04
3132;BME280;62090;52.330;9.104;2023-06-19T00:53:53;100429.56;;;25.10;50.96
3132;BME280;62090;52.330;9.104;2023-06-19T00:56:23;100442.16;;;25.21;50.59
3132;BME280;62090;52.330;9.104;2023-06-19T00:58:53;100436.94;;;25.21;50.84
3132;BME280;62090;52.330;9.104;2023-06-19T01:01:23;100422.59;;;25.11;50.62
3132;BME280;62090;52.330;9.104;2023-06-19T01:03:55;100418.31;;;25.08;50.75
3132;BME280;62090;52.330;9.104;2023-06-19T01:06:33;100429.38;;;25.15;50.80
3132;BME280;62090;52.330;9.104;2023-06-19T01:09:08;100407.44;;;24.99;50.50
3132;BME280;62090;52.330;9.104;2023-06-19T01:11:44;100430.31;;;25.12;51.08
3132;BME280;62090;52.330;9.104;2023-06-19T01:14:18;100385.88;;;24.72;51.17
3132;BME280;62090;52.330;9.104;2023-06-19T01:16:48;100424.22;;;24.92;51.49
3132;BME280;62090;52.330;9.104;2023-06-19T01:19:20;100420.03;;;24.88;51.28
3132;BME280;62090;52.330;9.104;2023-06-19T01:21:53;100408.19;;;24.79;51.38
3132;BME280;62090;52.330;9.104;2023-06-19T01:24:25;100381.81;;;24.65;51.55
3132;BME280;62090;52.330;9.104;2023-06-19T01:26:55;100408.13;;;24.80;52.11
3132;BME280;62090;52.330;9.104;2023-06-19T01:29:25;100414.41;;;24.75;52.57
3132;BME280;62090;52.330;9.104;2023-06-19T01:31:59;100406.50;;;24.78;52.54
3132;BME280;62090;52.330;9.104;2023-06-19T01:34:33;100333.69;;;24.30;52.36
3132;BME280;62090;52.330;9.104;2023-06-19T01:37:07;100402.47;;;24.69;51.81
3132;BME280;62090;52.330;9.104;2023-06-19T01:39:45;100398.19;;;24.68;51.82
3132;BME280;62090;52.330;9.104;2023-06-19T01:42:15;100403.47;;;24.67;52.23
3132;BME280;62090;52.330;9.104;2023-06-19T01:44:45;100396.19;;;24.53;52.30
3132;BME280;62090;52.330;9.104;2023-06-19T01:47:15;100397.44;;;24.65;52.60
3132;BME280;62090;52.330;9.104;2023-06-19T01:49:47;100370.38;;;24.47;53.54
3132;BME280;62090;52.330;9.104;2023-06-19T01:52:17;100399.31;;;24.61;53.37
3132;BME280;62090;52.330;9.104;2023-06-19T01:54:49;100312.69;;;23.88;53.71
3132;BME280;62090;52.330;9.104;2023-06-19T01:57:21;100400.06;;;24.20;56.09
3132;BME280;62090;52.330;9.104;2023-06-19T01:59:50;100371.53;;;23.92;56.84
3132;BME280;62090;52.330;9.104;2023-06-19T02:02:21;100388.06;;;23.91;57.83
3132;BME280;62090;52.330;9.104;2023-06-19T02:04:51;100390.69;;;23.66;59.59
3132;BME280;62090;52.330;9.104;2023-06-19T02:07:21;100371.25;;;23.51;59.23
3132;BME280;62090;52.330;9.104;2023-06-19T02:09:53;100396.09;;;23.60;59.76
3132;BME280;62090;52.330;9.104;2023-06-19T02:12:23;100393.97;;;23.46;60.16
3132;BME280;62090;52.330;9.104;2023-06-19T02:14:54;100390.91;;;23.34;60.48
3132;BME280;62090;52.330;9.104;2023-06-19T02:17:24;100338.38;;;22.98;59.81
3132;BME280;62090;52.330;9.104;2023-06-19T02:19:55;100391.06;;;23.29;60.12
3132;BME280;62090;52.330;9.104;2023-06-19T02:22:25;100392.97;;;23.24;59.75
3132;BME280;62090;52.330;9.104;2023-06-19T02:24:57;100395.72;;;23.20;60.13
3132;BME280;62090;52.330;9.104;2023-06-19T02:27:27;100386.03;;;23.25;59.39
3132;BME280;62090;52.330;9.104;2023-06-19T02:29:58;100380.78;;;23.26;59.98
3132;BME280;62090;52.330;9.104;2023-06-19T02:32:30;100382.44;;;23.27;59.09
3132;BME280;62090;52.330;9.104;2023-06-19T02:35:02;100373.88;;;23.25;58.97
3132;BME280;62090;52.330;9.104;2023-06-19T02:37:32;100308.00;;;23.00;58.17
3132;BME280;62090;52.330;9.104;2023-06-19T02:40:07;100352.00;;;23.31;57.81
3132;BME280;62090;52.330;9.104;2023-06-19T02:42:37;100381.84;;;23.47;58.23
3132;BME280;62090;52.330;9.104;2023-06-19T02:45:08;100375.84;;;23.43;57.84
3132;BME280;62090;52.330;9.104;2023-06-19T02:47:40;100379.97;;;23.50;58.01
3132;BME280;62090;52.330;9.104;2023-06-19T02:50:11;100375.94;;;23.40;58.74
3132;BME280;62090;52.330;9.104;2023-06-19T02:52:41;100376.88;;;23.38;58.73
3132;BME280;62090;52.330;9.104;2023-06-19T02:55:13;100382.38;;;23.30;58.44
3132;BME280;62090;52.330;9.104;2023-06-19T02:57:43;100367.28;;;23.15;59.05
3132;BME280;62090;52.330;9.104;2023-06-19T03:00:14;100385.28;;;23.21;59.44
3132;BME280;62090;52.330;9.104;2023-06-19T03:02:44;100387.88;;;23.21;60.48
3132;BME280;62090;52.330;9.104;2023-06-19T03:05:15;100388.69;;;23.22;60.50
3132;BME280;62090;52.330;9.104;2023-06-19T03:07:45;100369.22;;;23.08;60.30
3132;BME280;62090;52.330;9.104;2023-06-19T03:10:18;100355.25;;;23.11;60.29
3132;BME280;62090;52.330;9.104;2023-06-19T03:12:48;100342.88;;;22.93;61.37
3132;BME280;62090;52.330;9.104;2023-06-19T03:15:18;100376.38;;;23.02;61.68
3132;BME280;62090;52.330;9.104;2023-06-19T03:17:49;100334.81;;;22.74;62.01
3132;BME280;62090;52.330;9.104;2023-06-19T03:20:20;100391.97;;;23.02;62.05
3132;BME280;62090;52.330;9.104;2023-06-19T03:22:55;100396.94;;;23.09;62.14
3132;BME280;62090;52.330;9.104;2023-06-19T03:25:29;100400.16;;;23.16;62.32
3132;BME280;62090;52.330;9.104;2023-06-19T03:28:03;100399.38;;;23.14;61.56
3132;BME280;62090;52.330;9.104;2023-06-19T03:30:34;100366.34;;;22.90;61.91
3132;BME280;62090;52.330;9.104;2023-06-19T03:33:04;100403.03;;;23.08;61.76
3132;BME280;62090;52.330;9.104;2023-06-19T03:35:43;100376.63;;;22.94;62.02
3132;BME280;62090;52.330;9.104;2023-06-19T03:38:23;100277.88;;;22.40;62.04
3132;BME280;62090;52.330;9.104;2023-06-19T03:40:56;100396.03;;;23.10;62.90
3132;BME280;62090;52.330;9.104;2023-06-19T03:43:26;100395.44;;;23.01;62.95
3132;BME280;62090;52.330;9.104;2023-06-19T03:45:56;100375.97;;;22.88;64.09
3132;BME280;62090;52.330;9.104;2023-06-19T03:48:27;100358.97;;;22.78;64.07
3132;BME280;62090;52.330;9.104;2023-06-19T03:50:56;100357.13;;;22.81;63.36
3132;BME280;62090;52.330;9.104;2023-06-19T03:53:27;100369.03;;;22.88;62.59
3132;BME280;62090;52.330;9.104;2023-06-19T03:55:59;100386.03;;;22.98;63.32
3132;BME280;62090;52.330;9.104;2023-06-19T03:58:31;100392.34;;;22.90;64.44
3132;BME280;62090;52.330;9.104;2023-06-19T04:01:01;100388.13;;;22.87;63.80
3132;BME280;62090;52.330;9.104;2023-06-19T04:03:32;100376.19;;;22.80;64.14
3132;BME280;62090;52.330;9.104;2023-06-19T04:06:02;100379.97;;;22.70;64.85
3132;BME280;62090;52.330;9.104;2023-06-19T04:08:33;100395.94;;;22.86;65.45
3132;BME280;62090;52.330;9.104;2023-06-19T04:11:05;100388.97;;;22.88;65.90
3132;BME280;62090;52.330;9.104;2023-06-19T04:13:35;100250.38;;;22.07;65.83
3132;BME280;62090;52.330;9.104;2023-06-19T04:16:05;100403.25;;;23.01;66.45
3132;BME280;62090;52.330;9.104;2023-06-19T04:18:35;100377.69;;;22.89;65.83
3132;BME280;62090;52.330;9.104;2023-06-19T04:21:05;100402.34;;;23.02;65.96
3132;BME280;62090;52.330;9.104;2023-06-19T04:23:34;100326.56;;;22.61;65.65
3132;BME280;62090;52.330;9.104;2023-06-19T04:26:07;100314.66;;;22.54;65.08
3132;BME280;62090;52.330;9.104;2023-06-19T04:28:38;100395.22;;;23.08;66.08
3132;BME280;62090;52.330;9.104;2023-06-19T04:31:08;100396.72;;;23.15;67.38
3132;BME280;62090;52.330;9.104;2023-06-19T04:33:38;100325.28;;;22.74;67.46
3132;BME280;62090;52.330;9.104;2023-06-19T04:36:08;100393.97;;;23.20;68.24
3132;BME280;62090;52.330;9.104;2023-06-19T04:38:38;100390.47;;;23.21;68.72
3132;BME280;62090;52.330;9.104;2023-06-19T04:41:11;100341.06;;;22.95;69.64
3132;BME280;62090;52.330;9.104;2023-06-19T04:43:40;100379.34;;;23.16;69.35
3132;BME280;62090;52.330;9.104;2023-06-19T04:46:11;100403.06;;;23.33;69.53
3132;BME280;62090;52.330;9.104;2023-06-19T04:48:40;100403.00;;;23.35;69.66
3132;BME280;62090;52.330;9.104;2023-06-19T04:51:10;100401.91;;;23.42;70.26
3132;BME280;62090;52.330;9.104;2023-06-19T04:53:40;100396.50;;;23.48;70.46
3132;BME280;62090;52.330;9.104;2023-06-19T04:56:13;100405.56;;;23.63;70.75
3132;BME280;62090;52.330;9.104;2023-06-19T04:58:43;100407.97;;;23.69;70.49
3132;BME280;62090;52.330;9.104;2023-06-19T05:01:15;100376.25;;;23.58;71.20
3132;BME280;62090;52.330;9.104;2023-06-19T05:03:49;100419.25;;;23.92;71.60
3132;BME280;62090;52.330;9.104;2023-06-19T05:06:19;100418.19;;;23.98;71.69
3132;BME280;62090;52.330;9.104;2023-06-19T05:08:49;100392.38;;;23.92;71.80
3132;BME280;62090;52.330;9.104;2023-06-19T05:11:21;100416.53;;;24.20;72.02
3132;BME280;62090;52.330;9.104;2023-06-19T05:13:51;100428.53;;;24.24;71.28
3132;BME280;62090;52.330;9.104;2023-06-19T05:16:22;100422.78;;;24.38;69.87
3132;BME280;62090;52.330;9.104;2023-06-19T05:18:52;100395.53;;;24.25;68.71
3132;BME280;62090;52.330;9.104;2023-06-19T05:21:22;100384.56;;;24.15;68.11
3132;BME280;62090;52.330;9.104;2023-06-19T05:23:52;100437.56;;;24.37;67.18
3132;BME280;62090;52.330;9.104;2023-06-19T05:26:25;100427.94;;;24.39;67.49
3132;BME280;62090;52.330;9.104;2023-06-19T05:28:55;100406.13;;;24.20;67.06
3132;BME280;62090;52.330;9.104;2023-06-19T05:31:25;100427.50;;;24.28;66.27
3132;BME280;62090;52.330;9.104;2023-06-19T05:33:54;100427.94;;;24.16;65.78
3132;BME280;62090;52.330;9.104;2023-06-19T05:36:25;100436.06;;;24.07;65.58
3132;BME280;62090;52.330;9.104;2023-06-19T05:38:55;100434.97;;;23.89;65.66
3132;BME280;62090;52.330;9.104;2023-06-19T05:41:27;100432.41;;;23.88;65.91
3132;BME280;62090;52.330;9.104;2023-06-19T05:43:57;100434.66;;;23.74;65.84
3132;BME280;62090;52.330;9.104;2023-06-19T05:46:27;100435.59;;;23.71;64.52
3132;BME280;62090;52.330;9.104;2023-06-19T05:48:57;100444.16;;;23.75;64.87
3132;BME280;62090;52.330;9.104;2023-06-19T05:51:27;100450.81;;;23.83;63.45
3132;BME280;62090;52.330;9.104;2023-06-19T05:53:56;100454.75;;;23.95;63.27
3132;BME280;62090;52.330;9.104;2023-06-19T05:56:33;100442.34;;;24.02;62.17
3132;BME280;62090;52.330;9.104;2023-06-19T05:59:03;100398.69;;;23.85;61.88
3132;BME280;62090;52.330;9.104;2023-06-19T06:01:32;100465.53;;;24.32;61.52
3132;BME280;62090;52.330;9.104;2023-06-19T06:04:02;100466.94;;;24.43;61.58
3132;BME280;62090;52.330;9.104;2023-06-19T06:06:32;100467.31;;;24.55;62.13
3132;BME280;62090;52.330;9.104;2023-06-19T06:09:02;100469.72;;;24.60;62.52
3132;BME280;62090;52.330;9.104;2023-06-19T06:11:35;100468.16;;;24.79;62.58
3132;BME280;62090;52.330;9.104;2023-06-19T06:14:05;100469.44;;;25.56;61.10
3132;BME280;62090;52.330;9.104;2023-06-19T06:16:38;100443.59;;;25.06;61.35
3132;BME280;62090;52.330;9.104;2023-06-19T06:19:08;100462.03;;;25.23;61.01
3132;BME280;62090;52.330;9.104;2023-06-19T06:21:37;100476.00;;;25.22;60.81
3132;BME280;62090;52.330;9.104;2023-06-19T06:24:07;100476.88;;;25.43;60.06
3132;BME280;62090;52.330;9.104;2023-06-19T06:26:40;100479.38;;;25.68;59.64
3132;BME280;62090;52.330;9.104;2023-06-19T06:29:10;100493.53;;;25.83;58.26
3132;BME280;62090;52.330;9.104;2023-06-19T06:31:40;100499.06;;;26.16;58.16
3132;BME280;62090;52.330;9.104;2023-06-19T06:34:10;100505.84;;;26.40;57.12
3132;BME280;62090;52.330;9.104;2023-06-19T06:36:40;100495.56;;;26.56;57.22
3132;BME280;62090;52.330;9.104;2023-06-19T06:39:29;100465.75;;;26.21;57.40
3132;BME280;62090;52.330;9.104;2023-06-19T06:42:02;100510.75;;;26.47;57.03
3132;BME280;62090;52.330;9.104;2023-06-19T06:44:32;100521.09;;;26.49;56.85
3132;BME280;62090;52.330;9.104;2023-06-19T06:47:03;100517.59;;;26.50;56.11
3132;BME280;62090;52.330;9.104;2023-06-19T06:49:32;100480.13;;;26.49;56.97
3132;BME280;62090;52.330;9.104;2023-06-19T06:52:03;100492.81;;;26.77;56.91
3132;BME280;62090;52.330;9.104;2023-06-19T06:54:33;100482.22;;;26.99;55.63
3132;BME280;62090;52.330;9.104;2023-06-19T06:57:06;100517.81;;;27.20;54.94
3132;BME280;62090;52.330;9.104;2023-06-19T06:59:35;100525.84;;;27.17;55.73
3132;BME280;62090;52.330;9.104;2023-06-19T07:02:05;100522.22;;;27.20;56.10
3132;BME280;62090;52.330;9.104;2023-06-19T07:04:35;100536.44;;;27.14;55.95
3132;BME280;62090;52.330;9.104;2023-06-19T07:07:05;100536.78;;;26.88;56.65
3132;BME280;62090;52.330;9.104;2023-06-19T07:09:36;100540.84;;;26.95;57.31
3132;BME280;62090;52.330;9.104;2023-06-19T07:12:08;100540.06;;;27.12;57.43
3132;BME280;62090;52.330;9.104;2023-06-19T07:14:38;100545.47;;;27.26;56.58
3132;BME280;62090;52.330;9.104;2023-06-19T07:17:08;100538.34;;;27.47;56.46
3132;BME280;62090;52.330;9.104;2023-06-19T07:19:38;100526.13;;;27.47;56.34
3132;BME280;62090;52.330;9.104;2023-06-19T07:22:08;100552.06;;;27.70;56.20
3132;BME280;62090;52.330;9.104;2023-06-19T07:24:40;100558.53;;;27.81;56.11
3132;BME280;62090;52.330;9.104;2023-06-19T07:27:12;100496.41;;;27.65;56.02
3132;BME280;62090;52.330;9.104;2023-06-19T07:29:44;100531.56;;;27.96;55.32
3132;BME280;62090;52.330;9.104;2023-06-19T07:32:13;100551.38;;;28.19;55.92
3132;BME280;62090;52.330;9.104;2023-06-19T07:34:43;100552.75;;;28.26;56.16
3132;BME280;62090;52.330;9.104;2023-06-19T07:37:13;100555.28;;;28.44;55.12
3132;BME280;62090;52.330;9.104;2023-06-19T07:39:44;100545.22;;;28.52;55.04
3132;BME280;62090;52.330;9.104;2023-06-19T07:42:18;100546.31;;;28.48;55.37
3132;BME280;62090;52.330;9.104;2023-06-19T07:44:52;100546.16;;;28.34;54.95
3132;BME280;62090;52.330;9.104;2023-06-19T07:47:22;100546.63;;;28.42;55.51
3132;BME280;62090;52.330;9.104;2023-06-19T07:49:52;100513.31;;;28.44;54.84
3132;BME280;62090;52.330;9.104;2023-06-19T07:52:22;100528.91;;;28.63;55.56
3132;BME280;62090;52.330;9.104;2023-06-19T07:54:53;100555.81;;;28.67;55.15
3132;BME280;62090;52.330;9.104;2023-06-19T07:57:26;100559.53;;;28.63;54.35
3132;BME280;62090;52.330;9.104;2023-06-19T07:59:56;100557.59;;;28.66;55.02
3132;BME280;62090;52.330;9.104;2023-06-19T08:02:25;100554.19;;;28.81;55.27
3132;BME280;62090;52.330;9.104;2023-06-19T08:04:55;100554.03;;;29.00;55.38
3132;BME280;62090;52.330;9.104;2023-06-19T08:07:25;100554.22;;;28.97;55.22
3132;BME280;62090;52.330;9.104;2023-06-19T08:09:55;100549.28;;;28.91;55.27
3132;BME280;62090;52.330;9.104;2023-06-19T08:12:41;100550.81;;;29.11;55.35
3132;BME280;62090;52.330;9.104;2023-06-19T08:15:11;100526.25;;;29.12;54.51
3132;BME280;62090;52.330;9.104;2023-06-19T08:17:42;100568.63;;;29.37;54.29
3132;BME280;62090;52.330;9.104;2023-06-19T08:20:12;100560.66;;;29.38;54.20
3132;BME280;62090;52.330;9.104;2023-06-19T08:22:42;100551.84;;;29.40;54.33
3132;BME280;62090;52.330;9.104;2023-06-19T08:25:12;100550.50;;;29.32;54.16
3132;BME280;62090;52.330;9.104;2023-06-19T08:27:44;100538.44;;;29.28;54.05
3132;BME280;62090;52.330;9.104;2023-06-19T08:30:14;100564.28;;;29.36;53.49
3132;BME280;62090;52.330;9.104;2023-06-19T08:32:45;100561.97;;;29.46;53.15
3132;BME280;62090;52.330;9.104;2023-06-19T08:35:16;100561.88;;;29.63;52.99
3132;BME280;62090;52.330;9.104;2023-06-19T08:37:45;100536.72;;;29.59;53.07
3132;BME280;62090;52.330;9.104;2023-06-19T08:40:15;100567.47;;;30.02;52.73
3132;BME280;62090;52.330;9.104;2023-06-19T08:42:47;100544.47;;;29.92;51.77
3132;BME280;62090;52.330;9.104;2023-06-19T08:45:19;100553.09;;;29.78;52.38
3132;BME280;62090;52.330;9.104;2023-06-19T08:47:48;100556.16;;;29.86;52.96
3132;BME280;62090;52.330;9.104;2023-06-19T08:50:19;100575.44;;;29.71;52.51
3132;BME280;62090;52.330;9.104;2023-06-19T08:52:49;100572.47;;;29.61;53.57
3132;BME280;62090;52.330;9.104;2023-06-19T08:55:19;100555.81;;;29.15;53.37
3132;BME280;62090;52.330;9.104;2023-06-19T08:57:52;100574.19;;;29.15;55.04
3132;BME280;62090;52.330;9.104;2023-06-19T09:00:26;100563.59;;;29.17;53.21
3132;BME280;62090;52.330;9.104;2023-06-19T09:03:00;100560.63;;;29.07;53.01
3132;BME280;62090;52.330;9.104;2023-06-19T09:05:41;100592.16;;;29.38;53.33
3132;BME280;62090;52.330;9.104;2023-06-19T09:08:18;100568.69;;;29.35;52.63
3132;BME280;62090;52.330;9.104;2023-06-19T09:10:57;100590.44;;;29.53;52.46
3132;BME280;62090;52.330;9.104;2023-06-19T09:13:31;100596.91;;;29.32;53.28
3132;BME280;62090;52.330;9.104;2023-06-19T09:16:02;100609.41;;;29.27;53.68
3132;BME280;62090;52.330;9.104;2023-06-19T09:18:42;100601.47;;;29.28;52.91
3132;BME280;62090;52.330;9.104;2023-06-19T09:21:15;100576.28;;;28.93;53.41
3132;BME280;62090;52.330;9.104;2023-06-19T09:23:46;100613.03;;;29.24;54.19
3132;BME280;62090;52.330;9.104;2023-06-19T09:26:24;100621.41;;;29.15;54.06
3132;BME280;62090;52.330;9.104;2023-06-19T09:28:57;100617.06;;;28.83;54.87
3132;BME280;62090;52.330;9.104;2023-06-19T09:31:33;100626.88;;;28.62;53.39
3132;BME280;62090;52.330;9.104;2023-06-19T09:34:04;100592.50;;;28.51;54.48
3132;BME280;62090;52.330;9.104;2023-06-19T09:36:35;100618.75;;;28.67;54.25
3132;BME280;62090;52.330;9.104;2023-06-19T09:39:05;100620.97;;;28.91;53.95
3132;BME280;62090;52.330;9.104;2023-06-19T09:41:36;100624.31;;;28.78;54.41
3132;BME280;62090;52.330;9.104;2023-06-19T09:44:10;100620.81;;;29.10;52.81
3132;BME280;62090;52.330;9.104;2023-06-19T09:46:44;100620.56;;;29.30;54.13
3132;BME280;62090;52.330;9.104;2023-06-19T09:49:16;100625.72;;;29.49;52.66
3132;BME280;62090;52.330;9.104;2023-06-19T09:51:47;100632.66;;;29.34;53.04
3132;BME280;62090;52.330;9.104;2023-06-19T09:54:19;100622.75;;;29.40;53.92
3132;BME280;62090;52.330;9.104;2023-06-19T09:56:49;100631.06;;;29.77;53.46
3132;BME280;62090;52.330;9.104;2023-06-19T09:59:25;100634.78;;;29.89;53.00
3132;BME280;62090;52.330;9.104;2023-06-19T10:01:55;100633.06;;;29.58;52.28
3132;BME280;62090;52.330;9.104;2023-06-19T10:04:25;100645.13;;;29.29;52.76
3132;BME280;62090;52.330;9.104;2023-06-19T10:06:55;100614.38;;;29.00;53.10
3132;BME280;62090;52.330;9.104;2023-06-19T10:09:32;100635.69;;;28.94;52.54
3132;BME280;62090;52.330;9.104;2023-06-19T10:12:11;100646.66;;;29.18;52.80
3132;BME280;62090;52.330;9.104;2023-06-19T10:14:47;100617.19;;;28.97;52.37
3132;BME280;62090;52.330;9.104;2023-06-19T10:17:17;100638.34;;;29.10;53.25
3132;BME280;62090;52.330;9.104;2023-06-19T10:19:50;100644.53;;;29.24;53.09
3132;BME280;62090;52.330;9.104;2023-06-19T10:22:20;100625.66;;;29.02;52.82
3132;BME280;62090;52.330;9.104;2023-06-19T10:24:51;100640.72;;;29.14;52.63
3132;BME280;62090;52.330;9.104;2023-06-19T10:27:22;100648.25;;;29.20;52.88
3132;BME280;62090;52.330;9.104;2023-06-19T10:29:55;100643.78;;;29.22;53.27
3132;BME280;62090;52.330;9.104;2023-06-19T10:32:38;100653.41;;;29.39;52.80
3132;BME280;62090;52.330;9.104;2023-06-19T10:35:11;100653.41;;;29.39;51.69
3132;BME280;62090;52.330;9.104;2023-06-19T10:37:41;100648.59;;;29.14;52.88
3132;BME280;62090;52.330;9.104;2023-06-19T10:40:12;100645.13;;;29.29;52.71
3132;BME280;62090;52.330;9.104;2023-06-19T10:42:42;100626.59;;;29.17;53.28
3132;BME280;62090;52.330;9.104;2023-06-19T10:45:15;100640.56;;;29.17;52.06
3132;BME280;62090;52.330;9.104;2023-06-19T10:47:55;100606.25;;;28.89;53.40
3132;BME280;62090;52.330;9.104;2023-06-19T10:50:25;100620.75;;;29.27;52.08
3132;BME280;62090;52.330;9.104;2023-06-19T10:52:55;100637.19;;;29.31;52.03
3132;BME280;62090;52.330;9.104;2023-06-19T10:55:25;100614.56;;;29.13;50.86
3132;BME280;62090;52.330;9.104;2023-06-19T10:57:55;100643.91;;;29.36;51.31
3132;BME280;62090;52.330;9.104;2023-06-19T11:00:29;100651.03;;;29.34;51.48
3132;BME280;62090;52.330;9.104;2023-06-19T11:02:59;100656.03;;;29.06;52.50
3132;BME280;62090;52.330;9.104;2023-06-19T11:05:29;100661.91;;;28.78;53.33
3132;BME280;62090;52.330;9.104;2023-06-19T11:07:59;100654.28;;;28.74;53.59
3132;BME280;62090;52.330;9.104;2023-06-19T11:10:29;100656.03;;;28.73;53.42
3132;BME280;62090;52.330;9.104;2023-06-19T11:12:59;100639.06;;;28.80;53.09
3132;BME280;62090;52.330;9.104;2023-06-19T11:15:33;100658.78;;;28.87;53.45
3132;BME280;62090;52.330;9.104;2023-06-19T11:18:03;100644.22;;;28.82;52.81
3132;BME280;62090;52.330;9.104;2023-06-19T11:20:43;100636.16;;;28.52;52.33
3132;BME280;62090;52.330;9.104;2023-06-19T11:23:13;100676.63;;;28.46;54.10
3132;BME280;62090;52.330;9.104;2023-06-19T11:25:43;100678.63;;;28.59;53.96
3132;BME280;62090;52.330;9.104;2023-06-19T11:28:14;100675.53;;;28.50;53.43
3132;BME280;62090;52.330;9.104;2023-06-19T11:30:47;100668.84;;;28.79;53.18
3132;BME280;62090;52.330;9.104;2023-06-19T11:33:19;100669.06;;;28.92;53.50
3132;BME280;62090;52.330;9.104;2023-06-19T11:35:53;100665.84;;;29.35;52.54
3132;BME280;62090;52.330;9.104;2023-06-19T11:38:24;100671.34;;;29.47;51.82
3132;BME280;62090;52.330;9.104;2023-06-19T11:40:55;100670.25;;;29.51;52.10
3132;BME280;62090;52.330;9.104;2023-06-19T11:43:26;100653.38;;;29.23;52.76
3132;BME280;62090;52.330;9.104;2023-06-19T11:46:03;100661.63;;;29.64;51.41
3132;BME280;62090;52.330;9.104;2023-06-19T11:48:36;100677.88;;;29.71;51.68
3132;BME280;62090;52.330;9.104;2023-06-19T11:51:08;100672.47;;;29.43;50.73
3132;BME280;62090;52.330;9.104;2023-06-19T11:53:38;100687.22;;;29.45;51.27
3132;BME280;62090;52.330;9.104;2023-06-19T11:56:08;100691.16;;;29.36;50.51
3132;BME280;62090;52.330;9.104;2023-06-19T11:58:38;100694.41;;;29.24;50.74
3132;BME280;62090;52.330;9.104;2023-06-19T12:01:11;100677.78;;;29.08;50.09
3132;BME280;62090;52.330;9.104;2023-06-19T12:03:41;100693.06;;;29.17;49.95
3132;BME280;62090;52.330;9.104;2023-06-19T12:06:11;100690.06;;;28.92;51.22
3132;BME280;62090;52.330;9.104;2023-06-19T12:08:41;100684.63;;;28.95;50.92
3132;BME280;62090;52.330;9.104;2023-06-19T12:11:11;100700.31;;;28.96;50.28
3132;BME280;62090;52.330;9.104;2023-06-19T12:13:41;100685.31;;;28.98;50.95
3132;BME280;62090;52.330;9.104;2023-06-19T12:16:14;100666.53;;;29.06;51.00
3132;BME280;62090;52.330;9.104;2023-06-19T12:18:44;100685.78;;;29.22;50.54
3132;BME280;62090;52.330;9.104;2023-06-19T12:21:14;100685.34;;;29.47;51.25
3132;BME280;62090;52.330;9.104;2023-06-19T12:24:00;100693.13;;;29.49;50.76
3132;BME280;62090;52.330;9.104;2023-06-19T12:26:30;100685.41;;;29.61;50.51
3132;BME280;62090;52.330;9.104;2023-06-19T12:29:04;100694.00;;;29.65;51.71
3132;BME280;62090;52.330;9.104;2023-06-19T12:31:37;100688.72;;;29.80;51.22
3132;BME280;62090;52.330;9.104;2023-06-19T12:34:07;100688.53;;;29.84;51.22
3132;BME280;62090;52.330;9.104;2023-06-19T12:36:56;100668.56;;;29.81;51.44
3132;BME280;62090;52.330;9.104;2023-06-19T12:39:26;100695.44;;;30.02;51.49
3132;BME280;62090;52.330;9.104;2023-06-19T12:41:56;100684.47;;;29.78;51.39
3132;BME280;62090;52.330;9.104;2023-06-19T12:44:26;100688.81;;;29.63;51.51
3132;BME280;62090;52.330;9.104;2023-06-19T12:46:59;100680.50;;;29.71;51.99
3132;BME280;62090;52.330;9.104;2023-06-19T12:49:31;100697.34;;;29.98;51.43
3132;BME280;62090;52.330;9.104;2023-06-19T12:52:02;100689.91;;;29.75;50.91
3132;BME280;62090;52.330;9.104;2023-06-19T12:54:32;100679.22;;;29.78;52.41
3132;BME280;62090;52.330;9.104;2023-06-19T12:57:02;100690.00;;;29.73;51.64
3132;BME280;62090;52.330;9.104;2023-06-19T12:59:32;100677.88;;;29.71;52.02
3132;BME280;62090;52.330;9.104;2023-06-19T13:02:05;100654.66;;;29.79;51.66
3132;BME280;62090;52.330;9.104;2023-06-19T13:04:37;100677.19;;;29.99;50.98
3132;BME280;62090;52.330;9.104;2023-06-19T13:07:07;100688.03;;;30.08;50.66
3132;BME280;62090;52.330;9.104;2023-06-19T13:09:37;100687.94;;;30.10;50.66
3132;BME280;62090;52.330;9.104;2023-06-19T13:12:08;100692.22;;;30.27;51.00
3132;BME280;62090;52.330;9.104;2023-06-19T13:14:38;100692.75;;;30.17;49.73
3132;BME280;62090;52.330;9.104;2023-06-19T13:17:11;100668.34;;;30.15;50.50
3132;BME280;62090;52.330;9.104;2023-06-19T13:19:41;100696.78;;;30.39;50.37
3132;BME280;62090;52.330;9.104;2023-06-19T13:22:11;100691.88;;;30.33;51.13